sensor_id;sensor_type;location;lat;lon;timestamp;pressure;altitude;pressure_sealevel;temperature;humidity
50710;BME280;37033;49.994;21.992;2023-08-06T00:00:33;97928.20;;;20.75;98.36
50710;BME280;37033;49.994;21.992;2023-08-06T00:03:23;97925.68;;;20.73;98.57
50710;BME280;37033;49.994;21.992;2023-08-06T00:05:54;97924.26;;;20.70;98.75
50710;BME280;37033;49.994;21.992;2023-08-06T00:08:25;97918.87;;;20.67;99.25
50710;BME280;37033;49.994;21.992;2023-08-06T00:10:55;97919.09;;;20.62;99.34
50710;BME280;37033;49.994;21.992;2023-08-06T00:13:26;97920.85;;;20.59;99.30
50710;BME280;37033;49.994;21.992;2023-08-06T00:15:57;97914.27;;;20.56;98.86
50710;BME280;37033;49.994;21.992;2023-08-06T00:18:38;97910.80;;;20.56;99.15
50710;BME280;37033;49.994;21.992;2023-08-06T00:21:08;97906.94;;;20.53;99.10
50710;BME280;37033;49.994;21.992;2023-08-06T00:23:41;97902.34;;;20.52;99.04
50710;BME280;37033;49.994;21.992;2023-08-06T00:26:12;97898.92;;;20.52;99.13
50710;BME280;37033;49.994;21.992;2023-08-06T00:28:43;97895.34;;;20.51;99.31
50710;BME280;37033;49.994;21.992;2023-08-06T00:31:13;97892.01;;;20.47;99.11
50710;BME280;37033;49.994;21.992;2023-08-06T00:33:44;97886.84;;;20.46;99.39
50710;BME280;37033;49.994;21.992;2023-08-06T00:36:14;97888.58;;;20.44;99.37
50710;BME280;37033;49.994;21.992;2023-08-06T00:38:45;97891.04;;;20.42;99.13
50710;BME280;37033;49.994;21.992;2023-08-06T00:41:16;97889.45;;;20.40;99.13
50710;BME280;37033;49.994;21.992;2023-08-06T00:43:47;97887.73;;;20.38;99.10
50710;BME280;37033;49.994;21.992;2023-08-06T00:46:17;97882.34;;;20.37;99.04
50710;BME280;37033;49.994;21.992;2023-08-06T00:48:49;97874.73;;;20.36;98.80
50710;BME280;37033;49.994;21.992;2023-08-06T00:51:21;97873.67;;;20.37;98.80
50710;BME280;37033;49.994;21.992;2023-08-06T00:53:53;97875.15;;;20.37;98.64
50710;BME280;37033;49.994;21.992;2023-08-06T00:56:25;97881.55;;;20.37;98.59
50710;BME280;37033;49.994;21.992;2023-08-06T00:58:57;97887.73;;;20.36;98.72
50710;BME280;37033;49.994;21.992;2023-08-06T01:01:28;97884.56;;;20.32;98.63
50710;BME280;37033;49.994;21.992;2023-08-06T01:03:58;97880.53;;;20.29;98.51
50710;BME280;37033;49.994;21.992;2023-08-06T01:06:37;97880.45;;;20.27;98.45
50710;BME280;37033;49.994;21.992;2023-08-06T01:09:21;97875.80;;;20.24;98.41
50710;BME280;37033;49.994;21.992;2023-08-06T01:12:04;97871.21;;;20.22;98.32
50710;BME280;37033;49.994;21.992;2023-08-06T01:14:44;97868.46;;;20.20;98.33
50710;BME280;37033;49.994;21.992;2023-08-06T01:17:16;97864.77;;;20.20;98.49
50710;BME280;37033;49.994;21.992;2023-08-06T01:19:47;97861.81;;;20.17;98.72
50710;BME280;37033;49.994;21.992;2023-08-06T01:22:18;97862.98;;;20.14;98.49
50710;BME280;37033;49.994;21.992;2023-08-06T01:24:51;97857.92;;;20.14;98.60
50710;BME280;37033;49.994;21.992;2023-08-06T01:27:28;97847.35;;;20.14;98.55
50710;BME280;37033;49.994;21.992;2023-08-06T01:30:06;97841.27;;;20.13;98.44
50710;BME280;37033;49.994;21.992;2023-08-06T01:32:43;97836.05;;;20.13;98.33
50710;BME280;37033;49.994;21.992;2023-08-06T01:35:17;97830.20;;;20.15;98.49
50710;BME280;37033;49.994;21.992;2023-08-06T01:37:48;97828.52;;;20.11;98.42
50710;BME280;37033;49.994;21.992;2023-08-06T01:40:18;97832.21;;;20.09;98.29
50710;BME280;37033;49.994;21.992;2023-08-06T01:42:49;97829.45;;;20.09;98.26
50710;BME280;37033;49.994;21.992;2023-08-06T01:45:20;97823.13;;;20.08;98.22
50710;BME280;37033;49.994;21.992;2023-08-06T01:47:51;97827.13;;;20.08;98.20
50710;BME280;37033;49.994;21.992;2023-08-06T01:50:21;97822.66;;;20.08;98.24
50710;BME280;37033;49.994;21.992;2023-08-06T01:52:52;97820.90;;;20.10;98.17
50710;BME280;37033;49.994;21.992;2023-08-06T01:55:23;97820.63;;;20.11;98.13
50710;BME280;37033;49.994;21.992;2023-08-06T01:57:54;97819.92;;;20.14;98.13
50710;BME280;37033;49.994;21.992;2023-08-06T02:00:24;97812.27;;;20.16;98.21
50710;BME280;37033;49.994;21.992;2023-08-06T02:02:57;97809.23;;;20.17;97.94
50710;BME280;37033;49.994;21.992;2023-08-06T02:05:27;97805.92;;;20.17;97.86
50710;BME280;37033;49.994;21.992;2023-08-06T02:07:58;97806.08;;;20.17;97.74
50710;BME280;37033;49.994;21.992;2023-08-06T02:10:29;97804.31;;;20.18;97.72
50710;BME280;37033;49.994;21.992;2023-08-06T02:12:59;97802.09;;;20.20;97.92
50710;BME280;37033;49.994;21.992;2023-08-06T02:15:30;97805.29;;;20.22;97.73
50710;BME280;37033;49.994;21.992;2023-08-06T02:18:01;97805.70;;;20.22;97.84
50710;BME280;37033;49.994;21.992;2023-08-06T02:20:32;97807.60;;;20.22;97.66
50710;BME280;37033;49.994;21.992;2023-08-06T02:23:02;97803.75;;;20.22;97.56
50710;BME280;37033;49.994;21.992;2023-08-06T02:25:33;97802.44;;;20.21;97.71
50710;BME280;37033;49.994;21.992;2023-08-06T02:28:04;97800.70;;;20.19;97.68
50710;BME280;37033;49.994;21.992;2023-08-06T02:30:35;97799.15;;;20.17;97.80
50710;BME280;37033;49.994;21.992;2023-08-06T02:33:05;97797.73;;;20.15;97.82
50710;BME280;37033;49.994;21.992;2023-08-06T02:35:36;97796.88;;;20.13;97.71
50710;BME280;37033;49.994;21.992;2023-08-06T02:38:07;97793.39;;;20.12;97.92
50710;BME280;37033;49.994;21.992;2023-08-06T02:40:37;97791.29;;;20.11;98.03
50710;BME280;37033;49.994;21.992;2023-08-06T02:43:13;97787.96;;;20.10;97.99
50710;BME280;37033;49.994;21.992;2023-08-06T02:45:43;97785.63;;;20.09;98.00
50710;BME280;37033;49.994;21.992;2023-08-06T02:48:14;97787.75;;;20.08;98.12
50710;BME280;37033;49.994;21.992;2023-08-06T02:50:45;97779.67;;;20.08;98.33
50710;BME280;37033;49.994;21.992;2023-08-06T02:53:15;97772.77;;;20.06;98.67
50710;BME280;37033;49.994;21.992;2023-08-06T02:55:48;97766.77;;;20.03;98.70
50710;BME280;37033;49.994;21.992;2023-08-06T02:58:19;97762.48;;;20.02;98.93
50710;BME280;37033;49.994;21.992;2023-08-06T03:01:02;97755.55;;;20.00;98.96
50710;BME280;37033;49.994;21.992;2023-08-06T03:03:34;97754.99;;;20.00;98.95
50710;BME280;37033;49.994;21.992;2023-08-06T03:06:05;97745.19;;;20.01;98.95
50710;BME280;37033;49.994;21.992;2023-08-06T03:08:38;97741.36;;;20.00;99.10
50710;BME280;37033;49.994;21.992;2023-08-06T03:11:08;97747.30;;;20.00;99.03
50710;BME280;37033;49.994;21.992;2023-08-06T03:13:39;97744.73;;;20.01;99.01
50710;BME280;37033;49.994;21.992;2023-08-06T03:16:10;97743.11;;;20.02;99.23
50710;BME280;37033;49.994;21.992;2023-08-06T03:18:40;97739.88;;;20.02;99.22
50710;BME280;37033;49.994;21.992;2023-08-06T03:21:11;97734.48;;;20.03;99.36
50710;BME280;37033;49.994;21.992;2023-08-06T03:23:41;97733.70;;;20.04;99.20
50710;BME280;37033;49.994;21.992;2023-08-06T03:26:12;97723.99;;;20.03;99.45
50710;BME280;37033;49.994;21.992;2023-08-06T03:28:43;97716.91;;;20.04;99.58
50710;BME280;37033;49.994;21.992;2023-08-06T03:31:14;97720.44;;;20.03;99.56
50710;BME280;37033;49.994;21.992;2023-08-06T03:33:44;97719.73;;;20.03;99.47
50710;BME280;37033;49.994;21.992;2023-08-06T03:36:15;97721.19;;;20.05;99.55
50710;BME280;37033;49.994;21.992;2023-08-06T03:38:46;97716.28;;;20.06;99.59
50710;BME280;37033;49.994;21.992;2023-08-06T03:41:16;97713.39;;;20.07;99.59
50710;BME280;37033;49.994;21.992;2023-08-06T03:43:47;97708.57;;;20.09;99.56
50710;BME280;37033;49.994;21.992;2023-08-06T03:46:18;97698.45;;;20.11;99.69
50710;BME280;37033;49.994;21.992;2023-08-06T03:48:48;97700.49;;;20.13;99.51
50710;BME280;37033;49.994;21.992;2023-08-06T03:51:19;97699.36;;;20.14;99.53
50710;BME280;37033;49.994;21.992;2023-08-06T03:53:50;97701.28;;;20.16;99.65
50710;BME280;37033;49.994;21.992;2023-08-06T03:56:20;97696.42;;;20.16;99.75
50710;BME280;37033;49.994;21.992;2023-08-06T03:58:51;97692.88;;;20.17;99.90
50710;BME280;37033;49.994;21.992;2023-08-06T04:01:22;97685.70;;;20.16;99.90
50710;BME280;37033;49.994;21.992;2023-08-06T04:03:52;97680.74;;;20.17;99.99
50710;BME280;37033;49.994;21.992;2023-08-06T04:06:23;97673.09;;;20.16;99.98
50710;BME280;37033;49.994;21.992;2023-08-06T04:08:53;97669.69;;;20.18;100.00
50710;BME280;37033;49.994;21.992;2023-08-06T04:11:24;97671.80;;;20.20;100.00
50710;BME280;37033;49.994;21.992;2023-08-06T04:13:55;97664.67;;;20.22;100.00
50710;BME280;37033;49.994;21.992;2023-08-06T04:16:25;97664.95;;;20.23;100.00
50710;BME280;37033;49.994;21.992;2023-08-06T04:18:56;97659.69;;;20.23;100.00
50710;BME280;37033;49.994;21.992;2023-08-06T04:21:27;97657.30;;;20.23;100.00
50710;BME280;37033;49.994;21.992;2023-08-06T04:23:59;97655.86;;;20.25;100.00
50710;BME280;37033;49.994;21.992;2023-08-06T04:26:30;97645.88;;;20.26;100.00
50710;BME280;37033;49.994;21.992;2023-08-06T04:29:01;97642.98;;;20.26;100.00
50710;BME280;37033;49.994;21.992;2023-08-06T04:31:32;97639.39;;;20.28;100.00
50710;BME280;37033;49.994;21.992;2023-08-06T04:34:02;97634.86;;;20.29;100.00
50710;BME280;37033;49.994;21.992;2023-08-06T04:36:33;97633.75;;;20.31;100.00
50710;BME280;37033;49.994;21.992;2023-08-06T04:39:04;97633.20;;;20.34;100.00
50710;BME280;37033;49.994;21.992;2023-08-06T04:41:34;97628.81;;;20.38;100.00
50710;BME280;37033;49.994;21.992;2023-08-06T04:44:05;97627.16;;;20.44;100.00
50710;BME280;37033;49.994;21.992;2023-08-06T04:46:36;97625.90;;;20.49;100.00
50710;BME280;37033;49.994;21.992;2023-08-06T04:49:07;97625.05;;;20.55;100.00
50710;BME280;37033;49.994;21.992;2023-08-06T04:51:37;97625.69;;;20.62;100.00
50710;BME280;37033;49.994;21.992;2023-08-06T04:54:08;97619.50;;;20.67;100.00
50710;BME280;37033;49.994;21.992;2023-08-06T04:56:39;97618.44;;;20.74;100.00
50710;BME280;37033;49.994;21.992;2023-08-06T04:59:09;97616.48;;;20.81;100.00
50710;BME280;37033;49.994;21.992;2023-08-06T05:01:40;97610.91;;;20.88;100.00
50710;BME280;37033;49.994;21.992;2023-08-06T05:04:10;97608.89;;;20.95;100.00
50710;BME280;37033;49.994;21.992;2023-08-06T05:06:41;97604.23;;;21.00;100.00
50710;BME280;37033;49.994;21.992;2023-08-06T05:09:12;97595.22;;;21.06;100.00
50710;BME280;37033;49.994;21.992;2023-08-06T05:11:43;97594.93;;;21.13;100.00
50710;BME280;37033;49.994;21.992;2023-08-06T05:14:13;97594.30;;;21.20;100.00
50710;BME280;37033;49.994;21.992;2023-08-06T05:16:44;97595.02;;;21.29;99.94
50710;BME280;37033;49.994;21.992;2023-08-06T05:19:15;97591.36;;;21.41;99.63
50710;BME280;37033;49.994;21.992;2023-08-06T05:21:45;97588.23;;;21.51;99.20
50710;BME280;37033;49.994;21.992;2023-08-06T05:24:16;97582.91;;;21.63;99.16
50710;BME280;37033;49.994;21.992;2023-08-06T05:26:47;97579.48;;;21.72;98.63
50710;BME280;37033;49.994;21.992;2023-08-06T05:29:18;97581.36;;;21.81;98.29
50710;BME280;37033;49.994;21.992;2023-08-06T05:31:49;97578.86;;;21.93;97.72
50710;BME280;37033;49.994;21.992;2023-08-06T05:34:20;97579.77;;;22.01;97.41
50710;BME280;37033;49.994;21.992;2023-08-06T05:36:51;97580.64;;;22.09;96.92
50710;BME280;37033;49.994;21.992;2023-08-06T05:39:22;97580.61;;;22.19;96.58
50710;BME280;37033;49.994;21.992;2023-08-06T05:41:52;97581.07;;;22.28;96.18
50710;BME280;37033;49.994;21.992;2023-08-06T05:44:24;97576.55;;;22.39;95.64
50710;BME280;37033;49.994;21.992;2023-08-06T05:46:55;97573.02;;;22.43;94.68
50710;BME280;37033;49.994;21.992;2023-08-06T05:49:25;97573.39;;;22.46;94.61
50710;BME280;37033;49.994;21.992;2023-08-06T05:51:56;97566.17;;;22.50;94.03
50710;BME280;37033;49.994;21.992;2023-08-06T05:54:27;97564.13;;;22.54;93.92
50710;BME280;37033;49.994;21.992;2023-08-06T05:56:58;97557.84;;;22.61;93.91
50710;BME280;37033;49.994;21.992;2023-08-06T05:59:28;97555.44;;;22.72;93.81
50710;BME280;37033;49.994;21.992;2023-08-06T06:01:59;97552.13;;;22.81;93.62
50710;BME280;37033;49.994;21.992;2023-08-06T06:04:30;97548.87;;;22.89;93.29
50710;BME280;37033;49.994;21.992;2023-08-06T06:07:00;97548.02;;;22.95;92.76
50710;BME280;37033;49.994;21.992;2023-08-06T06:09:31;97541.70;;;23.02;92.79
50710;BME280;37033;49.994;21.992;2023-08-06T06:12:02;97540.11;;;23.11;92.63
50710;BME280;37033;49.994;21.992;2023-08-06T06:14:33;97540.17;;;23.20;92.51
50710;BME280;37033;49.994;21.992;2023-08-06T06:17:04;97541.81;;;23.32;91.77
50710;BME280;37033;49.994;21.992;2023-08-06T06:19:35;97530.54;;;23.47;91.49
50710;BME280;37033;49.994;21.992;2023-08-06T06:22:06;97524.77;;;23.63;90.80
50710;BME280;37033;49.994;21.992;2023-08-06T06:24:37;97519.72;;;23.80;89.90
50710;BME280;37033;49.994;21.992;2023-08-06T06:27:07;97526.02;;;23.99;89.16
50710;BME280;37033;49.994;21.992;2023-08-06T06:29:38;97528.24;;;24.17;87.97
50710;BME280;37033;49.994;21.992;2023-08-06T06:32:09;97528.04;;;24.34;87.11
50710;BME280;37033;49.994;21.992;2023-08-06T06:34:40;97531.86;;;24.42;86.28
50710;BME280;37033;49.994;21.992;2023-08-06T06:37:10;97535.25;;;24.46;84.86
50710;BME280;37033;49.994;21.992;2023-08-06T06:39:41;97531.77;;;24.47;84.51
50710;BME280;37033;49.994;21.992;2023-08-06T06:42:13;97533.52;;;24.52;83.60
50710;BME280;37033;49.994;21.992;2023-08-06T06:44:44;97542.48;;;24.58;83.85
50710;BME280;37033;49.994;21.992;2023-08-06T06:47:15;97547.52;;;24.70;83.90
50710;BME280;37033;49.994;21.992;2023-08-06T06:49:46;97549.84;;;24.85;83.40
50710;BME280;37033;49.994;21.992;2023-08-06T06:52:16;97547.61;;;25.02;83.10
50710;BME280;37033;49.994;21.992;2023-08-06T06:54:47;97543.57;;;25.19;82.65
50710;BME280;37033;49.994;21.992;2023-08-06T06:57:18;97535.69;;;25.34;80.94
50710;BME280;37033;49.994;21.992;2023-08-06T06:59:49;97532.52;;;25.45;79.47
50710;BME280;37033;49.994;21.992;2023-08-06T07:02:19;97534.48;;;25.52;77.80
50710;BME280;37033;49.994;21.992;2023-08-06T07:04:51;97535.02;;;25.51;77.32
50710;BME280;37033;49.994;21.992;2023-08-06T07:07:22;97527.31;;;25.50;76.93
50710;BME280;37033;49.994;21.992;2023-08-06T07:09:52;97525.96;;;25.51;77.55
50710;BME280;37033;49.994;21.992;2023-08-06T07:12:23;97515.85;;;25.59;77.45
50710;BME280;37033;49.994;21.992;2023-08-06T07:14:53;97516.45;;;25.67;77.36
50710;BME280;37033;49.994;21.992;2023-08-06T07:17:24;97511.59;;;25.79;76.76
50710;BME280;37033;49.994;21.992;2023-08-06T07:19:55;97515.04;;;25.94;76.38
50710;BME280;37033;49.994;21.992;2023-08-06T07:22:25;97511.13;;;26.06;74.30
50710;BME280;37033;49.994;21.992;2023-08-06T07:24:56;97512.84;;;26.14;74.69
50710;BME280;37033;49.994;21.992;2023-08-06T07:27:27;97512.10;;;26.26;73.94
50710;BME280;37033;49.994;21.992;2023-08-06T07:29:58;97509.49;;;26.33;72.99
50710;BME280;37033;49.994;21.992;2023-08-06T07:32:28;97512.15;;;26.41;73.79
50710;BME280;37033;49.994;21.992;2023-08-06T07:34:59;97516.20;;;26.58;73.23
50710;BME280;37033;49.994;21.992;2023-08-06T07:37:32;97520.23;;;26.75;72.47
50710;BME280;37033;49.994;21.992;2023-08-06T07:40:03;97516.36;;;26.92;70.85
50710;BME280;37033;49.994;21.992;2023-08-06T07:42:33;97515.59;;;27.07;69.43
50710;BME280;37033;49.994;21.992;2023-08-06T07:45:06;97516.30;;;27.15;68.75
50710;BME280;37033;49.994;21.992;2023-08-06T07:47:37;97521.11;;;27.24;67.82
50710;BME280;37033;49.994;21.992;2023-08-06T07:50:10;97520.15;;;27.32;67.04
50710;BME280;37033;49.994;21.992;2023-08-06T07:52:40;97515.84;;;27.44;67.76
50710;BME280;37033;49.994;21.992;2023-08-06T07:55:11;97512.89;;;27.58;66.67
50710;BME280;37033;49.994;21.992;2023-08-06T07:57:42;97511.84;;;27.61;64.79
50710;BME280;37033;49.994;21.992;2023-08-06T08:00:13;97506.56;;;27.65;64.57
50710;BME280;37033;49.994;21.992;2023-08-06T08:02:44;97506.73;;;27.65;63.43
50710;BME280;37033;49.994;21.992;2023-08-06T08:05:16;97507.14;;;27.61;62.78
50710;BME280;37033;49.994;21.992;2023-08-06T08:07:46;97506.75;;;27.53;61.91
50710;BME280;37033;49.994;21.992;2023-08-06T08:10:17;97508.19;;;27.49;61.70
50710;BME280;37033;49.994;21.992;2023-08-06T08:12:48;97509.06;;;27.46;61.85
50710;BME280;37033;49.994;21.992;2023-08-06T08:15:19;97507.30;;;27.48;61.75
50710;BME280;37033;49.994;21.992;2023-08-06T08:17:50;97503.16;;;27.52;62.77
50710;BME280;37033;49.994;21.992;2023-08-06T08:20:22;97500.81;;;27.67;62.38
50710;BME280;37033;49.994;21.992;2023-08-06T08:22:53;97502.39;;;27.78;61.80
50710;BME280;37033;49.994;21.992;2023-08-06T08:25:23;97507.11;;;27.81;60.31
50710;BME280;37033;49.994;21.992;2023-08-06T08:27:54;97500.09;;;27.74;59.60
50710;BME280;37033;49.994;21.992;2023-08-06T08:30:25;97505.27;;;27.77;59.99
50710;BME280;37033;49.994;21.992;2023-08-06T08:32:56;97509.96;;;27.82;59.96
50710;BME280;37033;49.994;21.992;2023-08-06T08:35:26;97510.30;;;27.91;60.09
50710;BME280;37033;49.994;21.992;2023-08-06T08:37:57;97515.46;;;27.99;58.81
50710;BME280;37033;49.994;21.992;2023-08-06T08:40:31;97515.46;;;27.99;58.65
50710;BME280;37033;49.994;21.992;2023-08-06T08:43:03;97506.98;;;28.02;58.57
50710;BME280;37033;49.994;21.992;2023-08-06T08:45:35;97500.20;;;28.07;58.30
50710;BME280;37033;49.994;21.992;2023-08-06T08:48:11;97497.63;;;28.10;58.61
50710;BME280;37033;49.994;21.992;2023-08-06T08:50:45;97500.46;;;28.17;59.18
50710;BME280;37033;49.994;21.992;2023-08-06T08:53:17;97502.19;;;28.26;58.66
50710;BME280;37033;49.994;21.992;2023-08-06T08:55:50;97506.75;;;28.24;57.82
50710;BME280;37033;49.994;21.992;2023-08-06T08:58:21;97519.58;;;28.07;56.74
50710;BME280;37033;49.994;21.992;2023-08-06T09:00:52;97527.77;;;27.88;57.49
50710;BME280;37033;49.994;21.992;2023-08-06T09:03:24;97522.17;;;27.79;58.63
50710;BME280;37033;49.994;21.992;2023-08-06T09:05:56;97523.21;;;27.87;59.24
50710;BME280;37033;49.994;21.992;2023-08-06T09:08:39;97519.85;;;27.97;58.57
50710;BME280;37033;49.994;21.992;2023-08-06T09:11:12;97507.08;;;27.99;57.73
50710;BME280;37033;49.994;21.992;2023-08-06T09:13:43;97512.17;;;28.04;58.09
50710;BME280;37033;49.994;21.992;2023-08-06T09:16:14;97510.66;;;28.03;57.86
50710;BME280;37033;49.994;21.992;2023-08-06T09:18:45;97513.95;;;27.86;57.05
50710;BME280;37033;49.994;21.992;2023-08-06T09:21:16;97519.73;;;27.57;57.71
50710;BME280;37033;49.994;21.992;2023-08-06T09:23:47;97530.76;;;27.32;58.14
50710;BME280;37033;49.994;21.992;2023-08-06T09:26:18;97540.52;;;27.08;58.76
50710;BME280;37033;49.994;21.992;2023-08-06T09:28:48;97547.51;;;26.90;59.13
50710;BME280;37033;49.994;21.992;2023-08-06T09:31:19;97541.64;;;26.71;59.31
50710;BME280;37033;49.994;21.992;2023-08-06T09:33:50;97536.34;;;26.57;59.27
50710;BME280;37033;49.994;21.992;2023-08-06T09:36:21;97533.19;;;26.48;59.79
50710;BME280;37033;49.994;21.992;2023-08-06T09:38:52;97532.04;;;26.38;59.68
50710;BME280;37033;49.994;21.992;2023-08-06T09:41:28;97533.73;;;26.27;60.19
50710;BME280;37033;49.994;21.992;2023-08-06T09:44:00;97542.37;;;26.34;60.57
50710;BME280;37033;49.994;21.992;2023-08-06T09:46:33;97531.10;;;26.41;60.33
50710;BME280;37033;49.994;21.992;2023-08-06T09:49:04;97529.45;;;26.49;60.43
50710;BME280;37033;49.994;21.992;2023-08-06T09:51:38;97530.56;;;26.65;60.18
50710;BME280;37033;49.994;21.992;2023-08-06T09:54:10;97546.77;;;26.83;60.29
50710;BME280;37033;49.994;21.992;2023-08-06T09:56:43;97550.87;;;26.95;59.14
50710;BME280;37033;49.994;21.992;2023-08-06T09:59:14;97543.84;;;26.93;58.76
50710;BME280;37033;49.994;21.992;2023-08-06T10:01:46;97548.22;;;26.88;58.67
50710;BME280;37033;49.994;21.992;2023-08-06T10:04:17;97550.27;;;26.87;58.92
50710;BME280;37033;49.994;21.992;2023-08-06T10:06:48;97551.41;;;26.88;59.08
50710;BME280;37033;49.994;21.992;2023-08-06T10:09:20;97550.60;;;26.84;58.97
50710;BME280;37033;49.994;21.992;2023-08-06T10:11:52;97546.19;;;26.72;58.29
50710;BME280;37033;49.994;21.992;2023-08-06T10:14:26;97546.23;;;26.63;58.78
50710;BME280;37033;49.994;21.992;2023-08-06T10:17:00;97545.05;;;26.66;58.32
50710;BME280;37033;49.994;21.992;2023-08-06T10:19:32;97540.97;;;26.59;58.02
50710;BME280;37033;49.994;21.992;2023-08-06T10:22:17;97540.28;;;26.52;58.33
50710;BME280;37033;49.994;21.992;2023-08-06T10:24:46;97528.49;;;26.50;58.81
50710;BME280;37033;49.994;21.992;2023-08-06T10:27:22;97527.13;;;26.46;59.12
50710;BME280;37033;49.994;21.992;2023-08-06T10:29:53;97529.76;;;26.45;58.99
50710;BME280;37033;49.994;21.992;2023-08-06T10:32:50;97520.39;;;26.31;58.60
50710;BME280;37033;49.994;21.992;2023-08-06T10:35:31;97512.93;;;26.18;59.21
50710;BME280;37033;49.994;21.992;2023-08-06T10:38:05;97505.61;;;26.15;59.38
50710;BME280;37033;49.994;21.992;2023-08-06T10:40:36;97502.77;;;26.06;59.84
50710;BME280;37033;49.994;21.992;2023-08-06T10:43:07;97497.27;;;26.02;60.11
50710;BME280;37033;49.994;21.992;2023-08-06T10:45:51;97496.63;;;26.03;60.24
50710;BME280;37033;49.994;21.992;2023-08-06T10:48:33;97498.35;;;26.14;61.12
50710;BME280;37033;49.994;21.992;2023-08-06T10:51:10;97496.46;;;26.39;60.82
50710;BME280;37033;49.994;21.992;2023-08-06T10:53:43;97495.55;;;26.54;60.52
50710;BME280;37033;49.994;21.992;2023-08-06T10:56:18;97489.88;;;26.67;60.54
50710;BME280;37033;49.994;21.992;2023-08-06T10:58:50;97490.06;;;26.82;60.20
50710;BME280;37033;49.994;21.992;2023-08-06T11:01:23;97492.23;;;26.96;59.30
50710;BME280;37033;49.994;21.992;2023-08-06T11:03:54;97497.65;;;27.00;58.92
50710;BME280;37033;49.994;21.992;2023-08-06T11:06:25;97491.52;;;27.01;58.11
50710;BME280;37033;49.994;21.992;2023-08-06T11:08:56;97493.90;;;26.95;57.71
50710;BME280;37033;49.994;21.992;2023-08-06T11:11:27;97493.75;;;26.98;57.67
50710;BME280;37033;49.994;21.992;2023-08-06T11:13:59;97499.17;;;27.04;56.36
50710;BME280;37033;49.994;21.992;2023-08-06T11:16:30;97502.50;;;27.06;56.33
50710;BME280;37033;49.994;21.992;2023-08-06T11:19:01;97510.33;;;27.09;55.50
50710;BME280;37033;49.994;21.992;2023-08-06T11:21:32;97506.57;;;27.05;53.83
50710;BME280;37033;49.994;21.992;2023-08-06T11:24:03;97499.80;;;26.98;54.73
50710;BME280;37033;49.994;21.992;2023-08-06T11:26:34;97494.70;;;27.04;55.04
50710;BME280;37033;49.994;21.992;2023-08-06T11:29:07;97497.65;;;27.05;53.98
50710;BME280;37033;49.994;21.992;2023-08-06T11:31:38;97497.34;;;27.08;54.62
50710;BME280;37033;49.994;21.992;2023-08-06T11:34:09;97502.45;;;27.23;55.64
50710;BME280;37033;49.994;21.992;2023-08-06T11:36:42;97492.41;;;27.46;55.33
50710;BME280;37033;49.994;21.992;2023-08-06T11:39:13;97486.09;;;27.56;54.62
50710;BME280;37033;49.994;21.992;2023-08-06T11:41:44;97478.67;;;27.61;54.44
50710;BME280;37033;49.994;21.992;2023-08-06T11:44:15;97480.48;;;27.66;55.08
50710;BME280;37033;49.994;21.992;2023-08-06T11:46:53;97483.90;;;27.77;54.15
50710;BME280;37033;49.994;21.992;2023-08-06T11:52:22;97486.77;;;27.94;52.45
50710;BME280;37033;49.994;21.992;2023-08-06T11:55:04;97477.33;;;27.96;51.16
50710;BME280;37033;49.994;21.992;2023-08-06T11:57:36;97473.91;;;27.93;50.93
50710;BME280;37033;49.994;21.992;2023-08-06T12:00:11;97473.98;;;27.94;51.30
50710;BME280;37033;49.994;21.992;2023-08-06T12:02:44;97465.98;;;27.95;50.66
50710;BME280;37033;49.994;21.992;2023-08-06T12:05:16;97460.64;;;27.98;51.13
50710;BME280;37033;49.994;21.992;2023-08-06T12:07:50;97454.88;;;28.03;50.44
50710;BME280;37033;49.994;21.992;2023-08-06T12:10:24;97453.44;;;28.04;50.51
50710;BME280;37033;49.994;21.992;2023-08-06T12:12:55;97458.66;;;28.12;50.71
50710;BME280;37033;49.994;21.992;2023-08-06T12:15:26;97456.54;;;28.25;50.74
50710;BME280;37033;49.994;21.992;2023-08-06T12:17:57;97458.13;;;28.41;49.90
50710;BME280;37033;49.994;21.992;2023-08-06T12:20:27;97462.80;;;28.46;49.97
50710;BME280;37033;49.994;21.992;2023-08-06T12:22:58;97460.33;;;28.49;49.52
50710;BME280;37033;49.994;21.992;2023-08-06T12:25:29;97452.26;;;28.48;49.61
50710;BME280;37033;49.994;21.992;2023-08-06T12:28:00;97460.66;;;28.49;48.75
50710;BME280;37033;49.994;21.992;2023-08-06T12:30:31;97472.45;;;28.34;48.79
50710;BME280;37033;49.994;21.992;2023-08-06T12:33:02;97480.73;;;28.20;49.57
50710;BME280;37033;49.994;21.992;2023-08-06T12:35:32;97477.92;;;28.26;49.57
50710;BME280;37033;49.994;21.992;2023-08-06T12:38:03;97480.80;;;28.25;49.31
50710;BME280;37033;49.994;21.992;2023-08-06T12:40:34;97486.30;;;28.26;49.82
50710;BME280;37033;49.994;21.992;2023-08-06T12:43:05;97484.07;;;28.23;49.27
50710;BME280;37033;49.994;21.992;2023-08-06T12:45:35;97491.70;;;28.15;49.57
50710;BME280;37033;49.994;21.992;2023-08-06T12:48:07;97498.80;;;28.13;50.06
50710;BME280;37033;49.994;21.992;2023-08-06T12:50:38;97498.20;;;28.07;50.21
50710;BME280;37033;49.994;21.992;2023-08-06T12:53:09;97492.80;;;28.01;50.02
50710;BME280;37033;49.994;21.992;2023-08-06T12:55:39;97495.14;;;27.84;48.91
50710;BME280;37033;49.994;21.992;2023-08-06T12:58:10;97492.06;;;27.62;48.91
50710;BME280;37033;49.994;21.992;2023-08-06T13:00:41;97495.59;;;27.48;49.64
50710;BME280;37033;49.994;21.992;2023-08-06T13:03:12;97495.84;;;27.50;50.02
50710;BME280;37033;49.994;21.992;2023-08-06T13:05:43;97505.07;;;27.57;49.86
50710;BME280;37033;49.994;21.992;2023-08-06T13:08:14;97509.77;;;27.60;49.94
50710;BME280;37033;49.994;21.992;2023-08-06T13:10:45;97511.61;;;27.60;49.87
50710;BME280;37033;49.994;21.992;2023-08-06T13:13:15;97514.48;;;27.46;48.95
50710;BME280;37033;49.994;21.992;2023-08-06T13:15:46;97512.36;;;27.32;49.30